sensor_id;sensor_type;location;lat;lon;timestamp;temperature;humidity
64882;HTU21D;51375;44.836;38.672;2024-03-23T12:07:19;13.95;63.08
64882;HTU21D;51375;44.836;38.672;2024-03-23T12:09:47;13.90;62.60
64882;HTU21D;51375;44.836;38.672;2024-03-23T12:12:27;13.80;62.50
64882;HTU21D;51375;44.836;38.672;2024-03-23T12:15:07;13.73;62.73
64882;HTU21D;51375;44.836;38.672;2024-03-23T12:17:35;13.83;63.39
64882;HTU21D;51375;44.836;38.672;2024-03-23T12:20:01;14.01;63.30
64882;HTU21D;51375;44.836;38.672;2024-03-23T12:22:28;14.15;63.02
64882;HTU21D;51375;44.836;38.672;2024-03-23T12:24:55;14.22;62.95
64882;HTU21D;51375;44.836;38.672;2024-03-23T12:27:21;14.24;62.34
64882;HTU21D;51375;44.836;38.672;2024-03-23T12:29:48;14.19;62.27
64882;HTU21D;51375;44.836;38.672;2024-03-23T12:32:14;14.13;62.39
64882;HTU21D;51375;44.836;38.672;2024-03-23T12:34:40;14.12;62.24
64882;HTU21D;51375;44.836;38.672;2024-03-23T12:37:07;14.06;62.19
64882;HTU21D;51375;44.836;38.672;2024-03-23T12:39:33;13.99;62.34
64882;HTU21D;51375;44.836;38.672;2024-03-23T12:42:03;13.92;62.41
64882;HTU21D;51375;44.836;38.672;2024-03-23T12:44:29;13.80;62.56
64882;HTU21D;51375;44.836;38.672;2024-03-23T12:46:55;13.61;63.10
64882;HTU21D;51375;44.836;38.672;2024-03-23T12:49:22;13.46;63.54
64882;HTU21D;51375;44.836;38.672;2024-03-23T12:51:53;13.35;63.76
64882;HTU21D;51375;44.836;38.672;2024-03-23T12:54:21;13.20;63.89
64882;HTU21D;51375;44.836;38.672;2024-03-23T12:56:47;12.99;64.37
64882;HTU21D;51375;44.836;38.672;2024-03-23T12:59:13;12.87;64.85
64882;HTU21D;51375;44.836;38.672;2024-03-23T13:01:40;12.77;65.18
64882;HTU21D;51375;44.836;38.672;2024-03-23T13:04:06;12.73;65.46
64882;HTU21D;51375;44.836;38.672;2024-03-23T13:06:32;12.75;65.59
64882;HTU21D;51375;44.836;38.672;2024-03-23T13:09:02;12.74;66.04
64882;HTU21D;51375;44.836;38.672;2024-03-23T13:11:30;12.76;66.24
64882;HTU21D;51375;44.836;38.672;2024-03-23T13:13:56;12.78;66.55
64882;HTU21D;51375;44.836;38.672;2024-03-23T13:16:22;12.86;66.85
64882;HTU21D;51375;44.836;38.672;2024-03-23T13:18:48;12.94;66.88
64882;HTU21D;51375;44.836;38.672;2024-03-23T13:21:14;13.00;66.88
64882;HTU21D;51375;44.836;38.672;2024-03-23T13:23:40;13.07;67.10
64882;HTU21D;51375;44.836;38.672;2024-03-23T13:26:08;13.16;67.20
64882;HTU21D;51375;44.836;38.672;2024-03-23T13:28:34;13.26;67.23
64882;HTU21D;51375;44.836;38.672;2024-03-23T13:31:01;13.36;67.23
64882;HTU21D;51375;44.836;38.672;2024-03-23T13:33:30;13.41;67.10
64882;HTU21D;51375;44.836;38.672;2024-03-23T13:36:00;13.43;67.04
64882;HTU21D;51375;44.836;38.672;2024-03-23T13:38:26;13.41;66.98
64882;HTU21D;51375;44.836;38.672;2024-03-23T13:40:56;13.43;67.10
64882;HTU21D;51375;44.836;38.672;2024-03-23T13:43:23;13.40;67.07
64882;HTU21D;51375;44.836;38.672;2024-03-23T13:45:58;13.37;67.26
64882;HTU21D;51375;44.836;38.672;2024-03-23T13:48:26;13.35;67.28
64882;HTU21D;51375;44.836;38.672;2024-03-23T13:51:04;13.31;67.33
64882;HTU21D;51375;44.836;38.672;2024-03-23T13:53:31;13.22;67.52
64882;HTU21D;51375;44.836;38.672;2024-03-23T13:56:00;13.18;67.85
64882;HTU21D;51375;44.836;38.672;2024-03-23T13:58:26;13.25;67.78
64882;HTU21D;51375;44.836;38.672;2024-03-23T14:00:52;13.23;67.72
64882;HTU21D;51375;44.836;38.672;2024-03-23T14:03:18;13.20;67.70
64882;HTU21D;51375;44.836;38.672;2024-03-23T14:05:45;13.21;67.62
64882;HTU21D;51375;44.836;38.672;2024-03-23T14:08:13;13.19;67.74
64882;HTU21D;51375;44.836;38.672;2024-03-23T14:10:42;13.23;67.81
64882;HTU21D;51375;44.836;38.672;2024-03-23T14:13:08;13.23;67.69
64882;HTU21D;51375;44.836;38.672;2024-03-23T14:15:35;13.23;67.53
64882;HTU21D;51375;44.836;38.672;2024-03-23T14:18:05;13.23;67.35
64882;HTU21D;51375;44.836;38.672;2024-03-23T14:20:31;13.21;67.27
64882;HTU21D;51375;44.836;38.672;2024-03-23T14:22:58;13.21;67.35
64882;HTU21D;51375;44.836;38.672;2024-03-23T14:25:24;13.18;67.39
64882;HTU21D;51375;44.836;38.672;2024-03-23T14:27:53;13.18;67.49
64882;HTU21D;51375;44.836;38.672;2024-03-23T14:30:19;13.18;67.59
64882;HTU21D;51375;44.836;38.672;2024-03-23T14:32:45;13.17;67.90
64882;HTU21D;51375;44.836;38.672;2024-03-23T14:35:11;13.12;68.11
64882;HTU21D;51375;44.836;38.672;2024-03-23T14:37:37;13.07;68.21
64882;HTU21D;51375;44.836;38.672;2024-03-23T14:40:04;13.02;68.25
64882;HTU21D;51375;44.836;38.672;2024-03-23T14:42:30;12.97;68.31
64882;HTU21D;51375;44.836;38.672;2024-03-23T14:44:59;12.88;68.54
64882;HTU21D;51375;44.836;38.672;2024-03-23T14:47:25;12.82;68.82
64882;HTU21D;51375;44.836;38.672;2024-03-23T14:49:51;12.76;69.02
64882;HTU21D;51375;44.836;38.672;2024-03-23T14:52:17;12.71;69.23
64882;HTU21D;51375;44.836;38.672;2024-03-23T14:54:48;12.65;69.43
64882;HTU21D;51375;44.836;38.672;2024-03-23T14:57:13;12.59;69.50
64882;HTU21D;51375;44.836;38.672;2024-03-23T14:59:39;12.55;69.52
64882;HTU21D;51375;44.836;38.672;2024-03-23T15:02:09;12.48;69.52
64882;HTU21D;51375;44.836;38.672;2024-03-23T15:04:35;12.43;69.56
64882;HTU21D;51375;44.836;38.672;2024-03-23T15:07:01;12.37;69.68
64882;HTU21D;51375;44.836;38.672;2024-03-23T15:09:27;12.31;69.77
64882;HTU21D;51375;44.836;38.672;2024-03-23T15:11:53;12.26;69.86
64882;HTU21D;51375;44.836;38.672;2024-03-23T15:14:23;12.21;69.90
64882;HTU21D;51375;44.836;38.672;2024-03-23T15:16:49;12.17;69.94
64882;HTU21D;51375;44.836;38.672;2024-03-23T15:19:16;12.12;70.01
64882;HTU21D;51375;44.836;38.672;2024-03-23T15:21:43;12.08;70.18
64882;HTU21D;51375;44.836;38.672;2024-03-23T15:24:09;12.04;70.29
64882;HTU21D;51375;44.836;38.672;2024-03-23T15:26:37;12.00;70.35
64882;HTU21D;51375;44.836;38.672;2024-03-23T15:29:08;11.97;70.41
64882;HTU21D;51375;44.836;38.672;2024-03-23T15:31:40;11.90;70.38
64882;HTU21D;51375;44.836;38.672;2024-03-23T15:34:06;11.87;70.44
64882;HTU21D;51375;44.836;38.672;2024-03-23T15:36:37;11.82;70.48
64882;HTU21D;51375;44.836;38.672;2024-03-23T15:39:05;11.78;70.45
64882;HTU21D;51375;44.836;38.672;2024-03-23T15:41:31;11.74;70.50
64882;HTU21D;51375;44.836;38.672;2024-03-23T15:43:56;11.70;70.56
64882;HTU21D;51375;44.836;38.672;2024-03-23T15:46:22;11.68;70.55
64882;HTU21D;51375;44.836;38.672;2024-03-23T15:48:48;11.62;70.54
64882;HTU21D;51375;44.836;38.672;2024-03-23T15:51:16;11.57;70.61
64882;HTU21D;51375;44.836;38.672;2024-03-23T15:53:43;11.53;70.68
64882;HTU21D;51375;44.836;38.672;2024-03-23T15:56:09;11.48;70.84
64882;HTU21D;51375;44.836;38.672;2024-03-23T15:58:35;11.46;71.00
64882;HTU21D;51375;44.836;38.672;2024-03-23T16:01:06;11.45;71.06
64882;HTU21D;51375;44.836;38.672;2024-03-23T16:03:34;11.42;70.97
64882;HTU21D;51375;44.836;38.672;2024-03-23T16:06:02;11.37;71.02
64882;HTU21D;51375;44.836;38.672;2024-03-23T16:08:29;11.32;71.08
64882;HTU21D;51375;44.836;38.672;2024-03-23T16:11:00;11.27;71.10
64882;HTU21D;51375;44.836;38.672;2024-03-23T16:13:27;11.24;71.19
64882;HTU21D;51375;44.836;38.672;2024-03-23T16:16:01;11.17;71.17
64882;HTU21D;51375;44.836;38.672;2024-03-23T16:18:29;11.12;71.19
64882;HTU21D;51375;44.836;38.672;2024-03-23T16:20:57;11.04;71.28
64882;HTU21D;51375;44.836;38.672;2024-03-23T16:23:24;11.00;71.21
64882;HTU21D;51375;44.836;38.672;2024-03-23T16:25:51;10.92;71.16
64882;HTU21D;51375;44.836;38.672;2024-03-23T16:28:27;10.86;71.15
64882;HTU21D;51375;44.836;38.672;2024-03-23T16:30:56;10.82;71.19
64882;HTU21D;51375;44.836;38.672;2024-03-23T16:33:23;10.79;71.16
64882;HTU21D;51375;44.836;38.672;2024-03-23T16:36:06;10.71;71.23
64882;HTU21D;51375;44.836;38.672;2024-03-23T16:38:33;10.69;71.25
64882;HTU21D;51375;44.836;38.672;2024-03-23T16:41:06;10.65;71.26
64882;HTU21D;51375;44.836;38.672;2024-03-23T16:43:33;10.60;71.32
64882;HTU21D;51375;44.836;38.672;2024-03-23T16:46:02;10.54;71.38
64882;HTU21D;51375;44.836;38.672;2024-03-23T16:48:29;10.49;71.40
64882;HTU21D;51375;44.836;38.672;2024-03-23T16:51:00;10.41;71.44
64882;HTU21D;51375;44.836;38.672;2024-03-23T16:53:29;10.34;71.63
64882;HTU21D;51375;44.836;38.672;2024-03-23T16:56:02;10.28;71.66
64882;HTU21D;51375;44.836;38.672;2024-03-23T16:58:29;10.24;71.74
64882;HTU21D;51375;44.836;38.672;2024-03-23T17:00:56;10.20;71.82
64882;HTU21D;51375;44.836;38.672;2024-03-23T17:03:23;10.16;71.93
64882;HTU21D;51375;44.836;38.672;2024-03-23T17:05:50;10.16;71.93
64882;HTU21D;51375;44.836;38.672;2024-03-23T17:08:17;10.16;71.86
64882;HTU21D;51375;44.836;38.672;2024-03-23T17:10:43;10.14;71.77
64882;HTU21D;51375;44.836;38.672;2024-03-23T17:13:09;10.11;71.72
64882;HTU21D;51375;44.836;38.672;2024-03-23T17:15:47;10.07;71.67
64882;HTU21D;51375;44.836;38.672;2024-03-23T17:18:13;10.06;71.65
64882;HTU21D;51375;44.836;38.672;2024-03-23T17:20:39;10.01;71.58
64882;HTU21D;51375;44.836;38.672;2024-03-23T17:23:05;9.99;71.52
64882;HTU21D;51375;44.836;38.672;2024-03-23T17:25:31;9.97;71.51
64882;HTU21D;51375;44.836;38.672;2024-03-23T17:27:58;9.94;71.55
64882;HTU21D;51375;44.836;38.672;2024-03-23T17:30:23;9.94;71.60
64882;HTU21D;51375;44.836;38.672;2024-03-23T17:32:50;9.91;71.52
64882;HTU21D;51375;44.836;38.672;2024-03-23T17:35:18;9.89;71.54
64882;HTU21D;51375;44.836;38.672;2024-03-23T17:37:46;9.86;71.55
64882;HTU21D;51375;44.836;38.672;2024-03-23T17:40:12;9.84;71.44
64882;HTU21D;51375;44.836;38.672;2024-03-23T17:42:40;9.81;71.36
64882;HTU21D;51375;44.836;38.672;2024-03-23T17:45:07;9.76;71.38
64882;HTU21D;51375;44.836;38.672;2024-03-23T17:47:40;9.72;71.31
64882;HTU21D;51375;44.836;38.672;2024-03-23T17:50:08;9.69;71.35
64882;HTU21D;51375;44.836;38.672;2024-03-23T17:52:34;9.65;71.39
64882;HTU21D;51375;44.836;38.672;2024-03-23T17:55:01;9.62;71.45
64882;HTU21D;51375;44.836;38.672;2024-03-23T17:57:27;9.59;71.45
64882;HTU21D;51375;44.836;38.672;2024-03-23T17:59:54;9.55;71.32
64882;HTU21D;51375;44.836;38.672;2024-03-23T18:02:20;9.53;71.16
64882;HTU21D;51375;44.836;38.672;2024-03-23T18:04:48;9.52;71.12
64882;HTU21D;51375;44.836;38.672;2024-03-23T18:07:17;9.48;71.14
64882;HTU21D;51375;44.836;38.672;2024-03-23T18:09:44;9.45;71.14
64882;HTU21D;51375;44.836;38.672;2024-03-23T18:12:10;9.42;71.15
64882;HTU21D;51375;44.836;38.672;2024-03-23T18:14:36;9.39;71.08
64882;HTU21D;51375;44.836;38.672;2024-03-23T18:17:03;9.36;70.93
64882;HTU21D;51375;44.836;38.672;2024-03-23T18:19:29;9.33;70.93
64882;HTU21D;51375;44.836;38.672;2024-03-23T18:21:55;9.30;70.92
64882;HTU21D;51375;44.836;38.672;2024-03-23T18:24:21;9.25;70.89
64882;HTU21D;51375;44.836;38.672;2024-03-23T18:26:50;9.22;70.93
64882;HTU21D;51375;44.836;38.672;2024-03-23T18:29:16;9.16;71.02
64882;HTU21D;51375;44.836;38.672;2024-03-23T18:31:43;9.12;71.00
64882;HTU21D;51375;44.836;38.672;2024-03-23T18:34:10;9.09;71.00
64882;HTU21D;51375;44.836;38.672;2024-03-23T18:36:36;9.06;70.95
64882;HTU21D;51375;44.836;38.672;2024-03-23T18:39:02;9.04;70.92
64882;HTU21D;51375;44.836;38.672;2024-03-23T18:41:29;9.02;70.93
64882;HTU21D;51375;44.836;38.672;2024-03-23T18:43:56;8.98;70.91
64882;HTU21D;51375;44.836;38.672;2024-03-23T18:46:22;8.94;70.97
64882;HTU21D;51375;44.836;38.672;2024-03-23T18:48:49;8.92;71.10
64882;HTU21D;51375;44.836;38.672;2024-03-23T18:51:15;8.87;71.24
64882;HTU21D;51375;44.836;38.672;2024-03-23T18:53:43;8.81;71.39
64882;HTU21D;51375;44.836;38.672;2024-03-23T18:56:10;8.77;71.51
64882;HTU21D;51375;44.836;38.672;2024-03-23T18:58:36;8.75;71.58
64882;HTU21D;51375;44.836;38.672;2024-03-23T19:01:04;8.67;71.74
64882;HTU21D;51375;44.836;38.672;2024-03-23T19:03:32;8.63;71.88
64882;HTU21D;51375;44.836;38.672;2024-03-23T19:06:03;8.61;71.88
64882;HTU21D;51375;44.836;38.672;2024-03-23T19:08:30;8.62;71.84
64882;HTU21D;51375;44.836;38.672;2024-03-23T19:10:59;8.63;71.69
64882;HTU21D;51375;44.836;38.672;2024-03-23T19:13:27;8.61;71.67
64882;HTU21D;51375;44.836;38.672;2024-03-23T19:16:01;8.61;71.58
64882;HTU21D;51375;44.836;38.672;2024-03-23T19:18:31;8.58;71.62
64882;HTU21D;51375;44.836;38.672;2024-03-23T19:20:59;8.56;71.64
64882;HTU21D;51375;44.836;38.672;2024-03-23T19:23:27;8.52;71.63
64882;HTU21D;51375;44.836;38.672;2024-03-23T19:25:58;8.52;71.61
64882;HTU21D;51375;44.836;38.672;2024-03-23T19:28:25;8.49;71.66
64882;HTU21D;51375;44.836;38.672;2024-03-23T19:30:55;8.46;71.64
64882;HTU21D;51375;44.836;38.672;2024-03-23T19:33:23;8.43;71.68
64882;HTU21D;51375;44.836;38.672;2024-03-23T19:35:57;8.39;71.62
64882;HTU21D;51375;44.836;38.672;2024-03-23T19:38:24;8.35;71.71
64882;HTU21D;51375;44.836;38.672;2024-03-23T19:40:54;8.32;71.67
64882;HTU21D;51375;44.836;38.672;2024-03-23T19:43:20;8.31;71.72
64882;HTU21D;51375;44.836;38.672;2024-03-23T19:45:46;8.31;71.71
64882;HTU21D;51375;44.836;38.672;2024-03-23T19:48:12;8.33;71.63
64882;HTU21D;51375;44.836;38.672;2024-03-23T19:50:38;8.33;71.51
64882;HTU21D;51375;44.836;38.672;2024-03-23T19:53:04;8.35;71.43
64882;HTU21D;51375;44.836;38.672;2024-03-23T19:55:31;8.35;71.32
64882;HTU21D;51375;44.836;38.672;2024-03-23T19:57:58;8.37;71.18
64882;HTU21D;51375;44.836;38.672;2024-03-23T20:00:25;8.35;71.16
64882;HTU21D;51375;44.836;38.672;2024-03-23T20:02:51;8.35;71.19
64882;HTU21D;51375;44.836;38.672;2024-03-23T20:05:17;8.33;71.12
64882;HTU21D;51375;44.836;38.672;2024-03-23T20:07:43;8.31;71.16
64882;HTU21D;51375;44.836;38.672;2024-03-23T20:10:09;8.29;71.05
64882;HTU21D;51375;44.836;38.672;2024-03-23T20:12:38;8.24;70.95
64882;HTU21D;51375;44.836;38.672;2024-03-23T20:15:04;8.23;70.93
64882;HTU21D;51375;44.836;38.672;2024-03-23T20:17:30;8.21;70.87
64882;HTU21D;51375;44.836;38.672;2024-03-23T20:19:56;8.21;70.90
64882;HTU21D;51375;44.836;38.672;2024-03-23T20:22:22;8.20;70.90
64882;HTU21D;51375;44.836;38.672;2024-03-23T20:24:50;8.18;70.99
64882;HTU21D;51375;44.836;38.672;2024-03-23T20:27:18;8.13;71.06
64882;HTU21D;51375;44.836;38.672;2024-03-23T20:29:44;8.11;71.17
64882;HTU21D;51375;44.836;38.672;2024-03-23T20:32:10;8.09;71.09
64882;HTU21D;51375;44.836;38.672;2024-03-23T20:34:36;8.09;71.11
64882;HTU21D;51375;44.836;38.672;2024-03-23T20:37:02;8.11;71.09
64882;HTU21D;51375;44.836;38.672;2024-03-23T20:39:29;8.12;71.04
64882;HTU21D;51375;44.836;38.672;2024-03-23T20:41:55;8.09;71.01
64882;HTU21D;51375;44.836;38.672;2024-03-23T20:44:21;8.08;70.99
64882;HTU21D;51375;44.836;38.672;2024-03-23T20:46:47;8.08;70.97
64882;HTU21D;51375;44.836;38.672;2024-03-23T20:49:12;8.07;70.94
64882;HTU21D;51375;44.836;38.672;2024-03-23T20:51:39;8.05;70.93
64882;HTU21D;51375;44.836;38.672;2024-03-23T20:54:05;8.02;70.97
64882;HTU21D;51375;44.836;38.672;2024-03-23T20:56:33;8.02;71.06
64882;HTU21D;51375;44.836;38.672;2024-03-23T20:58:59;8.01;71.21
64882;HTU21D;51375;44.836;38.672;2024-03-23T21:01:25;8.00;71.19
64882;HTU21D;51375;44.836;38.672;2024-03-23T21:03:51;7.99;71.14
64882;HTU21D;51375;44.836;38.672;2024-03-23T21:06:19;7.97;71.01
64882;HTU21D;51375;44.836;38.672;2024-03-23T21:08:45;7.98;70.88
64882;HTU21D;51375;44.836;38.672;2024-03-23T21:11:11;7.97;70.76
64882;HTU21D;51375;44.836;38.672;2024-03-23T21:13:37;7.94;70.68
64882;HTU21D;51375;44.836;38.672;2024-03-23T21:16:03;7.97;70.68
64882;HTU21D;51375;44.836;38.672;2024-03-23T21:18:29;7.97;70.60
64882;HTU21D;51375;44.836;38.672;2024-03-23T21:20:57;7.93;70.57
64882;HTU21D;51375;44.836;38.672;2024-03-23T21:23:27;7.91;70.55
64882;HTU21D;51375;44.836;38.672;2024-03-23T21:25:57;7.88;70.48
64882;HTU21D;51375;44.836;38.672;2024-03-23T21:28:24;7.85;70.54
64882;HTU21D;51375;44.836;38.672;2024-03-23T21:30:50;7.79;70.63
64882;HTU21D;51375;44.836;38.672;2024-03-23T21:33:16;7.78;70.55
64882;HTU21D;51375;44.836;38.672;2024-03-23T21:35:42;7.78;70.53
64882;HTU21D;51375;44.836;38.672;2024-03-23T21:38:08;7.77;70.41
64882;HTU21D;51375;44.836;38.672;2024-03-23T21:40:35;7.75;70.34
64882;HTU21D;51375;44.836;38.672;2024-03-23T21:43:01;7.73;70.30
64882;HTU21D;51375;44.836;38.672;2024-03-23T21:45:27;7.71;70.21
64882;HTU21D;51375;44.836;38.672;2024-03-23T21:47:53;7.70;70.22
64882;HTU21D;51375;44.836;38.672;2024-03-23T21:50:19;7.70;70.19
64882;HTU21D;51375;44.836;38.672;2024-03-23T21:52:45;7.68;70.17
64882;HTU21D;51375;44.836;38.672;2024-03-23T21:55:11;7.65;70.03
64882;HTU21D;51375;44.836;38.672;2024-03-23T21:57:37;7.63;70.00
64882;HTU21D;51375;44.836;38.672;2024-03-23T22:00:05;7.60;69.94
64882;HTU21D;51375;44.836;38.672;2024-03-23T22:02:38;7.57;70.04
64882;HTU21D;51375;44.836;38.672;2024-03-23T22:05:06;7.57;70.07
64882;HTU21D;51375;44.836;38.672;2024-03-23T22:07:33;7.57;70.03
64882;HTU21D;51375;44.836;38.672;2024-03-23T22:09:59;7.55;70.07
64882;HTU21D;51375;44.836;38.672;2024-03-23T22:12:25;7.50;70.03
64882;HTU21D;51375;44.836;38.672;2024-03-23T22:14:52;7.49;70.04
64882;HTU21D;51375;44.836;38.672;2024-03-23T22:17:18;7.47;70.07
64882;HTU21D;51375;44.836;38.672;2024-03-23T22:19:46;7.44;70.08
64882;HTU21D;51375;44.836;38.672;2024-03-23T22:22:12;7.42;70.15
64882;HTU21D;51375;44.836;38.672;2024-03-23T22:24:38;7.42;70.15
64882;HTU21D;51375;44.836;38.672;2024-03-23T22:27:04;7.39;70.18
64882;HTU21D;51375;44.836;38.672;2024-03-23T22:29:30;7.37;70.16
64882;HTU21D;51375;44.836;38.672;2024-03-23T22:31:56;7.33;70.05
64882;HTU21D;51375;44.836;38.672;2024-03-23T22:34:24;7.31;69.90
64882;HTU21D;51375;44.836;38.672;2024-03-23T22:36:50;7.28;69.80
64882;HTU21D;51375;44.836;38.672;2024-03-23T22:39:16;7.25;69.71
64882;HTU21D;51375;44.836;38.672;2024-03-23T22:41:42;7.24;69.73
64882;HTU21D;51375;44.836;38.672;2024-03-23T22:44:08;7.19;69.67
64882;HTU21D;51375;44.836;38.672;2024-03-23T22:46:34;7.17;69.77
64882;HTU21D;51375;44.836;38.672;2024-03-23T22:49:00;7.17;69.82
64882;HTU21D;51375;44.836;38.672;2024-03-23T22:51:27;7.16;69.88
64882;HTU21D;51375;44.836;38.672;2024-03-23T22:53:53;7.10;70.00
64882;HTU21D;51375;44.836;38.672;2024-03-23T22:56:19;7.08;70.19
64882;HTU21D;51375;44.836;38.672;2024-03-23T22:58:45;7.04;70.16
64882;HTU21D;51375;44.836;38.672;2024-03-23T23:01:11;7.01;70.09
64882;HTU21D;51375;44.836;38.672;2024-03-23T23:03:37;7.00;70.05
64882;HTU21D;51375;44.836;38.672;2024-03-23T23:06:04;6.99;70.03
64882;HTU21D;51375;44.836;38.672;2024-03-23T23:08:31;6.98;70.05
64882;HTU21D;51375;44.836;38.672;2024-03-23T23:10:57;6.96;70.05
64882;HTU21D;51375;44.836;38.672;2024-03-23T23:13:23;6.96;70.00
64882;HTU21D;51375;44.836;38.672;2024-03-23T23:15:50;6.96;70.00
64882;HTU21D;51375;44.836;38.672;2024-03-23T23:18:19;6.94;69.93
64882;HTU21D;51375;44.836;38.672;2024-03-23T23:20:45;6.91;69.94
64882;HTU21D;51375;44.836;38.672;2024-03-23T23:23:13;6.90;69.87
64882;HTU21D;51375;44.836;38.672;2024-03-23T23:25:39;6.93;69.84
64882;HTU21D;51375;44.836;38.672;2024-03-23T23:28:05;6.93;69.83
64882;HTU21D;51375;44.836;38.672;2024-03-23T23:30:31;6.91;69.82
64882;HTU21D;51375;44.836;38.672;2024-03-23T23:32:57;6.90;69.81
64882;HTU21D;51375;44.836;38.672;2024-03-23T23:35:23;6.88;69.78
64882;HTU21D;51375;44.836;38.672;2024-03-23T23:37:52;6.86;69.63
64882;HTU21D;51375;44.836;38.672;2024-03-23T23:40:21;6.81;69.78
64882;HTU21D;51375;44.836;38.672;2024-03-23T23:42:47;6.76;69.84
64882;HTU21D;51375;44.836;38.672;2024-03-23T23:45:13;6.73;69.84
64882;HTU21D;51375;44.836;38.672;2024-03-23T23:47:39;6.71;69.74
64882;HTU21D;51375;44.836;38.672;2024-03-23T23:50:05;6.70;69.74
64882;HTU21D;51375;44.836;38.672;2024-03-23T23:52:32;6.69;69.71
64882;HTU21D;51375;44.836;38.672;2024-03-23T23:54:58;6.69;69.74
64882;HTU21D;51375;44.836;38.672;2024-03-23T23:57:24;6.68;69.75
64882;HTU21D;51375;44.836;38.672;2024-03-23T23:59:50;6.68;69.80
